sensor_id;sensor_type;location;lat;lon;timestamp;temperature;humidity
26099;DHT22;13860;52.370;6.764;2023-02-18T00:01:28;10.70;83.80
26099;DHT22;13860;52.370;6.764;2023-02-18T00:04:32;10.60;83.70
26099;DHT22;13860;52.370;6.764;2023-02-18T00:07:39;10.60;83.80
26099;DHT22;13860;52.370;6.764;2023-02-18T00:10:45;10.60;83.80
26099;DHT22;13860;52.370;6.764;2023-02-18T00:13:53;10.60;83.80
26099;DHT22;13860;52.370;6.764;2023-02-18T00:16:57;10.60;83.80
26099;DHT22;13860;52.370;6.764;2023-02-18T00:20:03;10.60;83.80
26099;DHT22;13860;52.370;6.764;2023-02-18T00:23:08;10.60;83.80
26099;DHT22;13860;52.370;6.764;2023-02-18T00:26:17;10.50;83.80
26099;DHT22;13860;52.370;6.764;2023-02-18T00:29:21;10.50;83.80
26099;DHT22;13860;52.370;6.764;2023-02-18T00:32:27;10.50;83.90
26099;DHT22;13860;52.370;6.764;2023-02-18T00:35:31;10.50;84.00
26099;DHT22;13860;52.370;6.764;2023-02-18T00:38:37;10.50;84.00
26099;DHT22;13860;52.370;6.764;2023-02-18T00:41:43;10.40;84.00
26099;DHT22;13860;52.370;6.764;2023-02-18T00:44:48;10.50;84.20
26099;DHT22;13860;52.370;6.764;2023-02-18T00:47:52;10.50;84.10
26099;DHT22;13860;52.370;6.764;2023-02-18T00:50:59;10.50;84.20
26099;DHT22;13860;52.370;6.764;2023-02-18T00:54:03;10.40;84.30
26099;DHT22;13860;52.370;6.764;2023-02-18T00:57:11;10.40;84.90
26099;DHT22;13860;52.370;6.764;2023-02-18T01:00:15;10.50;84.40
26099;DHT22;13860;52.370;6.764;2023-02-18T01:03:22;10.50;84.50
26099;DHT22;13860;52.370;6.764;2023-02-18T01:06:26;10.50;84.60
26099;DHT22;13860;52.370;6.764;2023-02-18T01:09:32;10.50;84.60
26099;DHT22;13860;52.370;6.764;2023-02-18T01:12:38;10.50;84.60
26099;DHT22;13860;52.370;6.764;2023-02-18T01:15:45;10.50;84.70
26099;DHT22;13860;52.370;6.764;2023-02-18T01:18:55;10.50;84.70
26099;DHT22;13860;52.370;6.764;2023-02-18T01:22:02;10.50;84.70
26099;DHT22;13860;52.370;6.764;2023-02-18T01:25:10;10.50;84.80
26099;DHT22;13860;52.370;6.764;2023-02-18T01:28:19;10.50;84.80
26099;DHT22;13860;52.370;6.764;2023-02-18T01:31:25;10.50;84.90
26099;DHT22;13860;52.370;6.764;2023-02-18T01:34:32;10.50;85.00
26099;DHT22;13860;52.370;6.764;2023-02-18T01:37:37;10.50;85.00
26099;DHT22;13860;52.370;6.764;2023-02-18T01:40:49;10.50;85.00
26099;DHT22;13860;52.370;6.764;2023-02-18T01:44:16;10.50;85.10
26099;DHT22;13860;52.370;6.764;2023-02-18T01:47:22;10.50;85.00
26099;DHT22;13860;52.370;6.764;2023-02-18T01:50:32;10.50;85.00
26099;DHT22;13860;52.370;6.764;2023-02-18T01:53:46;10.50;85.00
26099;DHT22;13860;52.370;6.764;2023-02-18T01:56:55;10.50;85.10
26099;DHT22;13860;52.370;6.764;2023-02-18T02:00:07;10.50;85.20
26099;DHT22;13860;52.370;6.764;2023-02-18T02:03:21;10.50;85.20
26099;DHT22;13860;52.370;6.764;2023-02-18T02:06:27;10.50;85.20
26099;DHT22;13860;52.370;6.764;2023-02-18T02:09:31;10.50;85.20
26099;DHT22;13860;52.370;6.764;2023-02-18T02:12:51;10.50;85.30
26099;DHT22;13860;52.370;6.764;2023-02-18T02:16:09;10.50;85.40
26099;DHT22;13860;52.370;6.764;2023-02-18T02:19:35;10.60;85.50
26099;DHT22;13860;52.370;6.764;2023-02-18T02:23:01;10.60;86.20
26099;DHT22;13860;52.370;6.764;2023-02-18T02:30:03;10.60;85.60
26099;DHT22;13860;52.370;6.764;2023-02-18T02:33:44;10.60;85.70
26099;DHT22;13860;52.370;6.764;2023-02-18T02:36:55;10.60;85.70
26099;DHT22;13860;52.370;6.764;2023-02-18T02:40:15;10.60;85.60
26099;DHT22;13860;52.370;6.764;2023-02-18T02:43:28;10.60;85.70
26099;DHT22;13860;52.370;6.764;2023-02-18T02:46:40;10.60;85.70
26099;DHT22;13860;52.370;6.764;2023-02-18T02:49:49;10.70;85.80
26099;DHT22;13860;52.370;6.764;2023-02-18T02:53:05;10.70;85.80
26099;DHT22;13860;52.370;6.764;2023-02-18T02:56:15;10.70;85.80
26099;DHT22;13860;52.370;6.764;2023-02-18T02:59:23;10.70;85.80
26099;DHT22;13860;52.370;6.764;2023-02-18T03:02:36;10.70;85.90
26099;DHT22;13860;52.370;6.764;2023-02-18T03:05:59;10.70;85.90
26099;DHT22;13860;52.370;6.764;2023-02-18T03:09:12;10.70;85.90
26099;DHT22;13860;52.370;6.764;2023-02-18T03:12:27;10.80;85.90
26099;DHT22;13860;52.370;6.764;2023-02-18T03:15:37;10.80;86.00
26099;DHT22;13860;52.370;6.764;2023-02-18T03:18:47;10.80;86.00
26099;DHT22;13860;52.370;6.764;2023-02-18T03:21:57;10.70;85.90
26099;DHT22;13860;52.370;6.764;2023-02-18T03:25:07;10.80;86.00
26099;DHT22;13860;52.370;6.764;2023-02-18T03:28:17;10.80;86.10
26099;DHT22;13860;52.370;6.764;2023-02-18T03:31:26;10.80;86.00
26099;DHT22;13860;52.370;6.764;2023-02-18T03:34:34;10.80;86.00
26099;DHT22;13860;52.370;6.764;2023-02-18T03:37:47;10.80;86.10
26099;DHT22;13860;52.370;6.764;2023-02-18T03:40:53;10.80;86.00
26099;DHT22;13860;52.370;6.764;2023-02-18T03:44:00;10.80;86.10
26099;DHT22;13860;52.370;6.764;2023-02-18T03:47:04;10.80;86.00
26099;DHT22;13860;52.370;6.764;2023-02-18T03:50:11;10.80;86.10
26099;DHT22;13860;52.370;6.764;2023-02-18T03:53:14;10.80;86.10
26099;DHT22;13860;52.370;6.764;2023-02-18T03:56:22;10.80;86.10
26099;DHT22;13860;52.370;6.764;2023-02-18T03:59:26;10.80;86.10
26099;DHT22;13860;52.370;6.764;2023-02-18T04:02:32;10.80;86.10
26099;DHT22;13860;52.370;6.764;2023-02-18T04:05:36;10.80;86.20
26099;DHT22;13860;52.370;6.764;2023-02-18T04:08:43;10.80;86.20
26099;DHT22;13860;52.370;6.764;2023-02-18T04:11:48;10.80;86.20
26099;DHT22;13860;52.370;6.764;2023-02-18T04:14:54;10.80;86.30
26099;DHT22;13860;52.370;6.764;2023-02-18T04:17:58;10.80;86.30
26099;DHT22;13860;52.370;6.764;2023-02-18T04:21:04;10.80;86.30
26099;DHT22;13860;52.370;6.764;2023-02-18T04:24:08;10.80;86.30
26099;DHT22;13860;52.370;6.764;2023-02-18T04:27:16;10.70;86.30
26099;DHT22;13860;52.370;6.764;2023-02-18T04:30:20;10.70;86.30
26099;DHT22;13860;52.370;6.764;2023-02-18T04:33:26;10.80;86.40
26099;DHT22;13860;52.370;6.764;2023-02-18T04:36:30;10.80;86.40
26099;DHT22;13860;52.370;6.764;2023-02-18T04:39:36;10.80;86.50
26099;DHT22;13860;52.370;6.764;2023-02-18T04:42:42;10.80;86.50
26099;DHT22;13860;52.370;6.764;2023-02-18T04:45:48;10.80;86.50
26099;DHT22;13860;52.370;6.764;2023-02-18T04:48:52;10.80;86.60
26099;DHT22;13860;52.370;6.764;2023-02-18T04:51:58;10.80;86.60
26099;DHT22;13860;52.370;6.764;2023-02-18T04:55:03;10.80;86.60
26099;DHT22;13860;52.370;6.764;2023-02-18T04:58:10;10.80;86.70
26099;DHT22;13860;52.370;6.764;2023-02-18T05:01:14;10.80;86.70
26099;DHT22;13860;52.370;6.764;2023-02-18T05:04:20;10.80;86.70
26099;DHT22;13860;52.370;6.764;2023-02-18T05:07:27;10.80;86.80
26099;DHT22;13860;52.370;6.764;2023-02-18T05:10:34;10.80;86.80
26099;DHT22;13860;52.370;6.764;2023-02-18T05:13:39;10.80;86.60
26099;DHT22;13860;52.370;6.764;2023-02-18T05:16:45;10.80;86.80
26099;DHT22;13860;52.370;6.764;2023-02-18T05:19:49;10.90;86.90
26099;DHT22;13860;52.370;6.764;2023-02-18T05:22:55;10.90;86.90
26099;DHT22;13860;52.370;6.764;2023-02-18T05:25:58;10.90;86.70
26099;DHT22;13860;52.370;6.764;2023-02-18T05:29:06;10.90;86.80
26099;DHT22;13860;52.370;6.764;2023-02-18T05:32:10;10.90;86.70
26099;DHT22;13860;52.370;6.764;2023-02-18T05:35:16;10.90;86.80
26099;DHT22;13860;52.370;6.764;2023-02-18T05:38:20;10.90;86.90
26099;DHT22;13860;52.370;6.764;2023-02-18T05:41:26;11.00;87.00
26099;DHT22;13860;52.370;6.764;2023-02-18T05:44:31;11.00;87.00
26099;DHT22;13860;52.370;6.764;2023-02-18T05:47:37;11.00;87.00
26099;DHT22;13860;52.370;6.764;2023-02-18T05:50:41;11.00;86.90
26099;DHT22;13860;52.370;6.764;2023-02-18T05:53:47;11.00;87.00
26099;DHT22;13860;52.370;6.764;2023-02-18T05:56:50;11.10;87.00
26099;DHT22;13860;52.370;6.764;2023-02-18T05:59:58;11.10;87.10
26099;DHT22;13860;52.370;6.764;2023-02-18T06:03:02;11.10;87.00
26099;DHT22;13860;52.370;6.764;2023-02-18T06:06:08;11.10;87.20
26099;DHT22;13860;52.370;6.764;2023-02-18T06:09:13;11.10;87.20
26099;DHT22;13860;52.370;6.764;2023-02-18T06:12:19;11.10;87.30
26099;DHT22;13860;52.370;6.764;2023-02-18T06:15:24;11.20;87.40
26099;DHT22;13860;52.370;6.764;2023-02-18T06:18:30;11.20;87.40
26099;DHT22;13860;52.370;6.764;2023-02-18T06:21:34;11.20;87.20
26099;DHT22;13860;52.370;6.764;2023-02-18T06:24:40;11.20;87.30
26099;DHT22;13860;52.370;6.764;2023-02-18T06:27:44;11.20;87.20
26099;DHT22;13860;52.370;6.764;2023-02-18T06:30:52;11.20;87.30
26099;DHT22;13860;52.370;6.764;2023-02-18T06:33:56;11.20;87.40
26099;DHT22;13860;52.370;6.764;2023-02-18T06:37:02;11.20;87.50
26099;DHT22;13860;52.370;6.764;2023-02-18T06:40:06;11.30;87.60
26099;DHT22;13860;52.370;6.764;2023-02-18T06:43:12;11.30;87.60
26099;DHT22;13860;52.370;6.764;2023-02-18T06:46:18;11.30;87.40
26099;DHT22;13860;52.370;6.764;2023-02-18T06:49:24;11.30;87.60
26099;DHT22;13860;52.370;6.764;2023-02-18T06:52:28;11.30;87.60
26099;DHT22;13860;52.370;6.764;2023-02-18T06:55:36;11.30;87.60
26099;DHT22;13860;52.370;6.764;2023-02-18T06:58:40;11.30;87.50
26099;DHT22;13860;52.370;6.764;2023-02-18T07:01:48;11.30;87.70
26099;DHT22;13860;52.370;6.764;2023-02-18T07:04:52;11.30;87.70
26099;DHT22;13860;52.370;6.764;2023-02-18T07:07:58;11.30;87.80
26099;DHT22;13860;52.370;6.764;2023-02-18T07:11:02;11.30;87.80
26099;DHT22;13860;52.370;6.764;2023-02-18T07:14:07;11.30;87.80
26099;DHT22;13860;52.370;6.764;2023-02-18T07:17:13;11.30;87.70
26099;DHT22;13860;52.370;6.764;2023-02-18T07:20:20;11.30;87.80
26099;DHT22;13860;52.370;6.764;2023-02-18T07:23:24;11.30;87.80
26099;DHT22;13860;52.370;6.764;2023-02-18T07:26:30;11.30;87.90
26099;DHT22;13860;52.370;6.764;2023-02-18T07:29:33;11.30;87.90
26099;DHT22;13860;52.370;6.764;2023-02-18T07:32:41;11.30;87.90
26099;DHT22;13860;52.370;6.764;2023-02-18T07:35:45;11.30;87.80
26099;DHT22;13860;52.370;6.764;2023-02-18T07:38:51;11.30;87.90
26099;DHT22;13860;52.370;6.764;2023-02-18T07:41:55;11.30;87.90
26099;DHT22;13860;52.370;6.764;2023-02-18T07:45:01;11.30;88.00
26099;DHT22;13860;52.370;6.764;2023-02-18T07:48:07;11.40;88.10
26099;DHT22;13860;52.370;6.764;2023-02-18T07:51:13;11.30;88.10
26099;DHT22;13860;52.370;6.764;2023-02-18T07:54:17;11.30;88.10
26099;DHT22;13860;52.370;6.764;2023-02-18T07:57:23;11.30;88.10
26099;DHT22;13860;52.370;6.764;2023-02-18T08:00:27;11.30;88.00
26099;DHT22;13860;52.370;6.764;2023-02-18T08:03:35;11.30;88.00
26099;DHT22;13860;52.370;6.764;2023-02-18T08:06:41;11.30;88.10
26099;DHT22;13860;52.370;6.764;2023-02-18T08:09:48;11.30;88.20
26099;DHT22;13860;52.370;6.764;2023-02-18T08:12:53;11.30;88.30
26099;DHT22;13860;52.370;6.764;2023-02-18T08:15:59;11.30;88.20
26099;DHT22;13860;52.370;6.764;2023-02-18T08:19:05;11.30;88.20
26099;DHT22;13860;52.370;6.764;2023-02-18T08:22:11;11.40;88.30
26099;DHT22;13860;52.370;6.764;2023-02-18T08:25:15;11.30;88.20
26099;DHT22;13860;52.370;6.764;2023-02-18T08:28:33;11.40;88.30
26099;DHT22;13860;52.370;6.764;2023-02-18T08:31:36;11.40;88.30
26099;DHT22;13860;52.370;6.764;2023-02-18T08:34:44;11.40;88.30
26099;DHT22;13860;52.370;6.764;2023-02-18T08:37:48;11.40;88.10
26099;DHT22;13860;52.370;6.764;2023-02-18T08:41:01;11.40;88.80
26099;DHT22;13860;52.370;6.764;2023-02-18T08:44:05;11.40;88.30
26099;DHT22;13860;52.370;6.764;2023-02-18T08:47:11;11.40;88.30
26099;DHT22;13860;52.370;6.764;2023-02-18T08:50:36;11.30;88.30
26099;DHT22;13860;52.370;6.764;2023-02-18T08:53:43;11.30;88.30
26099;DHT22;13860;52.370;6.764;2023-02-18T08:56:48;11.40;88.30
26099;DHT22;13860;52.370;6.764;2023-02-18T08:59:54;11.30;88.30
26099;DHT22;13860;52.370;6.764;2023-02-18T09:02:57;11.40;88.40
26099;DHT22;13860;52.370;6.764;2023-02-18T09:06:06;11.40;88.40
26099;DHT22;13860;52.370;6.764;2023-02-18T09:09:10;11.30;88.20
26099;DHT22;13860;52.370;6.764;2023-02-18T09:12:16;11.30;88.90
26099;DHT22;13860;52.370;6.764;2023-02-18T09:15:19;11.40;88.40
26099;DHT22;13860;52.370;6.764;2023-02-18T09:18:25;11.40;88.40
26099;DHT22;13860;52.370;6.764;2023-02-18T09:21:32;11.40;88.20
26099;DHT22;13860;52.370;6.764;2023-02-18T09:24:39;11.30;88.20
26099;DHT22;13860;52.370;6.764;2023-02-18T09:27:43;11.30;88.10
26099;DHT22;13860;52.370;6.764;2023-02-18T09:30:50;11.30;88.20
26099;DHT22;13860;52.370;6.764;2023-02-18T09:33:56;11.30;88.30
26099;DHT22;13860;52.370;6.764;2023-02-18T09:37:04;11.30;88.40
26099;DHT22;13860;52.370;6.764;2023-02-18T09:43:30;11.30;88.40
26099;DHT22;13860;52.370;6.764;2023-02-18T09:46:38;11.30;88.40
26099;DHT22;13860;52.370;6.764;2023-02-18T09:49:47;11.30;88.40
26099;DHT22;13860;52.370;6.764;2023-02-18T09:52:54;11.30;88.40
26099;DHT22;13860;52.370;6.764;2023-02-18T09:56:00;11.30;88.40
26099;DHT22;13860;52.370;6.764;2023-02-18T09:59:08;11.30;88.40
26099;DHT22;13860;52.370;6.764;2023-02-18T10:02:15;11.30;88.40
26099;DHT22;13860;52.370;6.764;2023-02-18T10:05:22;11.20;88.40
26099;DHT22;13860;52.370;6.764;2023-02-18T10:08:33;11.20;88.40
26099;DHT22;13860;52.370;6.764;2023-02-18T10:11:41;11.20;88.40
26099;DHT22;13860;52.370;6.764;2023-02-18T10:14:49;11.20;88.40
26099;DHT22;13860;52.370;6.764;2023-02-18T10:17:55;11.20;88.40
26099;DHT22;13860;52.370;6.764;2023-02-18T10:21:05;11.20;88.40
26099;DHT22;13860;52.370;6.764;2023-02-18T10:24:21;11.10;88.40
26099;DHT22;13860;52.370;6.764;2023-02-18T10:27:32;11.10;88.50
26099;DHT22;13860;52.370;6.764;2023-02-18T10:30:40;11.10;88.40
26099;DHT22;13860;52.370;6.764;2023-02-18T10:33:53;11.10;88.50
26099;DHT22;13860;52.370;6.764;2023-02-18T10:37:06;11.00;88.40
26099;DHT22;13860;52.370;6.764;2023-02-18T10:40:17;11.00;88.50
26099;DHT22;13860;52.370;6.764;2023-02-18T10:43:29;11.00;88.50
26099;DHT22;13860;52.370;6.764;2023-02-18T10:46:48;11.00;88.60
26099;DHT22;13860;52.370;6.764;2023-02-18T10:49:59;11.00;88.60
26099;DHT22;13860;52.370;6.764;2023-02-18T10:53:11;11.00;88.60
26099;DHT22;13860;52.370;6.764;2023-02-18T10:56:36;11.00;88.60
26099;DHT22;13860;52.370;6.764;2023-02-18T10:59:54;11.00;88.70
26099;DHT22;13860;52.370;6.764;2023-02-18T11:03:14;10.90;88.60
26099;DHT22;13860;52.370;6.764;2023-02-18T11:06:24;10.90;88.70
26099;DHT22;13860;52.370;6.764;2023-02-18T11:09:37;10.90;88.70
26099;DHT22;13860;52.370;6.764;2023-02-18T11:12:49;10.90;88.70
26099;DHT22;13860;52.370;6.764;2023-02-18T11:15:58;10.90;88.70
26099;DHT22;13860;52.370;6.764;2023-02-18T11:19:31;10.90;88.70
26099;DHT22;13860;52.370;6.764;2023-02-18T11:22:35;10.90;88.90
26099;DHT22;13860;52.370;6.764;2023-02-18T11:25:56;11.00;88.90
26099;DHT22;13860;52.370;6.764;2023-02-18T11:29:06;11.00;89.00
26099;DHT22;13860;52.370;6.764;2023-02-18T11:32:14;11.00;89.00
26099;DHT22;13860;52.370;6.764;2023-02-18T11:35:20;11.10;89.10
26099;DHT22;13860;52.370;6.764;2023-02-18T11:38:33;11.10;89.00
26099;DHT22;13860;52.370;6.764;2023-02-18T11:41:39;11.10;89.00
26099;DHT22;13860;52.370;6.764;2023-02-18T11:44:54;11.20;89.10
26099;DHT22;13860;52.370;6.764;2023-02-18T11:48:00;11.20;89.10
26099;DHT22;13860;52.370;6.764;2023-02-18T11:51:14;11.30;89.10
26099;DHT22;13860;52.370;6.764;2023-02-18T11:54:24;11.30;89.10
26099;DHT22;13860;52.370;6.764;2023-02-18T11:57:34;11.30;89.00
26099;DHT22;13860;52.370;6.764;2023-02-18T12:00:42;11.30;88.90
26099;DHT22;13860;52.370;6.764;2023-02-18T12:03:53;11.30;89.00
26099;DHT22;13860;52.370;6.764;2023-02-18T12:07:10;11.30;89.00
26099;DHT22;13860;52.370;6.764;2023-02-18T12:10:22;11.40;89.00
26099;DHT22;13860;52.370;6.764;2023-02-18T12:13:33;11.40;88.90
26099;DHT22;13860;52.370;6.764;2023-02-18T12:16:48;11.40;89.00
26099;DHT22;13860;52.370;6.764;2023-02-18T12:20:14;11.40;88.90
26099;DHT22;13860;52.370;6.764;2023-02-18T12:23:28;11.40;89.00
26099;DHT22;13860;52.370;6.764;2023-02-18T12:26:43;11.40;88.90
26099;DHT22;13860;52.370;6.764;2023-02-18T12:33:40;11.40;89.00
26099;DHT22;13860;52.370;6.764;2023-02-18T12:37:00;11.40;89.00
26099;DHT22;13860;52.370;6.764;2023-02-18T12:40:26;11.40;89.00
26099;DHT22;13860;52.370;6.764;2023-02-18T12:43:50;11.50;89.10
26099;DHT22;13860;52.370;6.764;2023-02-18T12:47:24;11.50;89.10
26099;DHT22;13860;52.370;6.764;2023-02-18T12:50:54;11.50;89.10
26099;DHT22;13860;52.370;6.764;2023-02-18T12:54:40;11.50;89.00
26099;DHT22;13860;52.370;6.764;2023-02-18T12:57:53;11.60;89.20
26099;DHT22;13860;52.370;6.764;2023-02-18T13:01:20;11.60;89.00
26099;DHT22;13860;52.370;6.764;2023-02-18T13:04:43;11.60;89.10
26099;DHT22;13860;52.370;6.764;2023-02-18T13:08:05;11.70;89.10
26099;DHT22;13860;52.370;6.764;2023-02-18T13:11:22;11.70;89.10
26099;DHT22;13860;52.370;6.764;2023-02-18T13:14:31;11.80;89.20
26099;DHT22;13860;52.370;6.764;2023-02-18T13:17:40;11.80;89.00
26099;DHT22;13860;52.370;6.764;2023-02-18T13:20:48;11.80;89.00
26099;DHT22;13860;52.370;6.764;2023-02-18T13:23:58;11.90;89.00
26099;DHT22;13860;52.370;6.764;2023-02-18T13:27:13;11.90;88.90
26099;DHT22;13860;52.370;6.764;2023-02-18T13:30:24;12.00;88.90
26099;DHT22;13860;52.370;6.764;2023-02-18T13:33:36;12.00;88.80
26099;DHT22;13860;52.370;6.764;2023-02-18T13:36:51;12.00;88.70
26099;DHT22;13860;52.370;6.764;2023-02-18T13:40:00;12.00;88.70
26099;DHT22;13860;52.370;6.764;2023-02-18T13:43:20;12.00;88.60
26099;DHT22;13860;52.370;6.764;2023-02-18T13:46:47;12.10;88.60
26099;DHT22;13860;52.370;6.764;2023-02-18T13:49:53;12.10;88.50
26099;DHT22;13860;52.370;6.764;2023-02-18T13:56:27;12.10;88.40
26099;DHT22;13860;52.370;6.764;2023-02-18T13:59:34;12.10;88.40
26099;DHT22;13860;52.370;6.764;2023-02-18T14:02:55;12.20;88.40
26099;DHT22;13860;52.370;6.764;2023-02-18T14:06:00;12.10;88.30
26099;DHT22;13860;52.370;6.764;2023-02-18T14:09:35;12.20;88.30
26099;DHT22;13860;52.370;6.764;2023-02-18T14:12:42;12.20;88.30
26099;DHT22;13860;52.370;6.764;2023-02-18T14:16:07;12.20;88.30
26099;DHT22;13860;52.370;6.764;2023-02-18T14:19:26;12.20;88.20
26099;DHT22;13860;52.370;6.764;2023-02-18T14:22:43;12.20;88.10
26099;DHT22;13860;52.370;6.764;2023-02-18T14:25:50;12.20;88.20
26099;DHT22;13860;52.370;6.764;2023-02-18T14:29:05;12.20;88.10
26099;DHT22;13860;52.370;6.764;2023-02-18T14:32:10;12.20;88.00
26099;DHT22;13860;52.370;6.764;2023-02-18T14:35:24;12.20;88.00
26099;DHT22;13860;52.370;6.764;2023-02-18T14:38:38;12.20;87.90
26099;DHT22;13860;52.370;6.764;2023-02-18T14:41:51;12.20;87.90
26099;DHT22;13860;52.370;6.764;2023-02-18T14:45:13;12.20;87.90
26099;DHT22;13860;52.370;6.764;2023-02-18T14:48:37;12.20;87.80
26099;DHT22;13860;52.370;6.764;2023-02-18T14:51:45;12.20;87.80
26099;DHT22;13860;52.370;6.764;2023-02-18T14:54:52;12.30;87.80
26099;DHT22;13860;52.370;6.764;2023-02-18T14:58:00;12.30;87.70
26099;DHT22;13860;52.370;6.764;2023-02-18T15:01:16;12.30;87.80
26099;DHT22;13860;52.370;6.764;2023-02-18T15:04:22;12.30;87.60
26099;DHT22;13860;52.370;6.764;2023-02-18T15:07:28;12.30;87.60
26099;DHT22;13860;52.370;6.764;2023-02-18T15:10:36;12.30;87.60
26099;DHT22;13860;52.370;6.764;2023-02-18T15:13:44;12.30;87.50
26099;DHT22;13860;52.370;6.764;2023-02-18T15:16:51;12.30;87.50
26099;DHT22;13860;52.370;6.764;2023-02-18T15:20:02;12.30;87.40
26099;DHT22;13860;52.370;6.764;2023-02-18T15:23:10;12.30;87.40
26099;DHT22;13860;52.370;6.764;2023-02-18T15:26:16;12.40;87.40
26099;DHT22;13860;52.370;6.764;2023-02-18T15:29:23;12.30;87.30
26099;DHT22;13860;52.370;6.764;2023-02-18T15:32:32;12.40;87.30
26099;DHT22;13860;52.370;6.764;2023-02-18T15:35:40;12.40;87.20
26099;DHT22;13860;52.370;6.764;2023-02-18T15:38:46;12.30;87.20
26099;DHT22;13860;52.370;6.764;2023-02-18T15:41:52;12.30;87.10
26099;DHT22;13860;52.370;6.764;2023-02-18T15:45:03;12.40;87.10
26099;DHT22;13860;52.370;6.764;2023-02-18T15:48:21;12.40;87.00
26099;DHT22;13860;52.370;6.764;2023-02-18T15:51:29;12.30;87.00
26099;DHT22;13860;52.370;6.764;2023-02-18T15:54:37;12.30;87.60
26099;DHT22;13860;52.370;6.764;2023-02-18T15:57:44;12.30;86.90
26099;DHT22;13860;52.370;6.764;2023-02-18T16:00:50;12.30;86.90
26099;DHT22;13860;52.370;6.764;2023-02-18T16:03:58;12.30;86.90
26099;DHT22;13860;52.370;6.764;2023-02-18T16:07:14;12.30;86.90
26099;DHT22;13860;52.370;6.764;2023-02-18T16:10:24;12.20;86.80
26099;DHT22;13860;52.370;6.764;2023-02-18T16:13:45;12.20;86.70
26099;DHT22;13860;52.370;6.764;2023-02-18T16:17:06;12.20;86.70
26099;DHT22;13860;52.370;6.764;2023-02-18T16:20:23;12.20;86.70
26099;DHT22;13860;52.370;6.764;2023-02-18T16:23:33;12.20;86.70
26099;DHT22;13860;52.370;6.764;2023-02-18T16:26:41;12.20;86.70
26099;DHT22;13860;52.370;6.764;2023-02-18T16:29:50;12.20;86.60
26099;DHT22;13860;52.370;6.764;2023-02-18T16:32:54;12.20;86.60
26099;DHT22;13860;52.370;6.764;2023-02-18T16:36:03;12.10;87.10
26099;DHT22;13860;52.370;6.764;2023-02-18T16:39:09;12.10;86.50
26099;DHT22;13860;52.370;6.764;2023-02-18T16:42:15;12.10;86.50
26099;DHT22;13860;52.370;6.764;2023-02-18T16:45:18;12.10;86.40
26099;DHT22;13860;52.370;6.764;2023-02-18T16:48:27;12.10;86.40
26099;DHT22;13860;52.370;6.764;2023-02-18T16:51:34;12.10;86.50
26099;DHT22;13860;52.370;6.764;2023-02-18T16:54:40;12.10;86.40
26099;DHT22;13860;52.370;6.764;2023-02-18T16:57:44;12.00;86.30
26099;DHT22;13860;52.370;6.764;2023-02-18T17:00:51;12.10;86.40
26099;DHT22;13860;52.370;6.764;2023-02-18T17:03:56;12.00;86.30
26099;DHT22;13860;52.370;6.764;2023-02-18T17:07:08;12.00;86.30
26099;DHT22;13860;52.370;6.764;2023-02-18T17:10:13;12.00;86.30
26099;DHT22;13860;52.370;6.764;2023-02-18T17:13:22;12.00;86.20
26099;DHT22;13860;52.370;6.764;2023-02-18T17:16:27;12.00;86.20
26099;DHT22;13860;52.370;6.764;2023-02-18T17:19:33;12.00;86.20
26099;DHT22;13860;52.370;6.764;2023-02-18T17:22:39;11.90;86.10
26099;DHT22;13860;52.370;6.764;2023-02-18T17:25:45;12.00;86.20
26099;DHT22;13860;52.370;6.764;2023-02-18T17:28:50;11.90;86.10
26099;DHT22;13860;52.370;6.764;2023-02-18T17:31:56;11.90;86.10
26099;DHT22;13860;52.370;6.764;2023-02-18T17:35:00;11.90;86.10
26099;DHT22;13860;52.370;6.764;2023-02-18T17:38:11;11.90;86.10
26099;DHT22;13860;52.370;6.764;2023-02-18T17:41:16;11.90;86.00
26099;DHT22;13860;52.370;6.764;2023-02-18T17:44:22;11.90;86.70
26099;DHT22;13860;52.370;6.764;2023-02-18T17:47:26;11.80;86.00
26099;DHT22;13860;52.370;6.764;2023-02-18T17:50:32;11.90;86.10
26099;DHT22;13860;52.370;6.764;2023-02-18T17:53:38;11.90;86.10
26099;DHT22;13860;52.370;6.764;2023-02-18T17:56:45;11.80;86.00
26099;DHT22;13860;52.370;6.764;2023-02-18T17:59:49;11.80;85.90
26099;DHT22;13860;52.370;6.764;2023-02-18T18:02:55;11.80;86.00
26099;DHT22;13860;52.370;6.764;2023-02-18T18:05:58;11.80;86.00
26099;DHT22;13860;52.370;6.764;2023-02-18T18:09:09;11.80;86.00
26099;DHT22;13860;52.370;6.764;2023-02-18T18:12:14;11.80;86.00
26099;DHT22;13860;52.370;6.764;2023-02-18T18:15:27;11.80;86.00
26099;DHT22;13860;52.370;6.764;2023-02-18T18:18:31;11.80;86.00
26099;DHT22;13860;52.370;6.764;2023-02-18T18:21:39;11.80;86.00
26099;DHT22;13860;52.370;6.764;2023-02-18T18:24:45;11.80;86.00
26099;DHT22;13860;52.370;6.764;2023-02-18T18:27:52;11.80;86.00
26099;DHT22;13860;52.370;6.764;2023-02-18T18:30:56;11.70;86.00
26099;DHT22;13860;52.370;6.764;2023-02-18T18:34:04;11.80;86.10
26099;DHT22;13860;52.370;6.764;2023-02-18T18:37:08;11.70;86.00
26099;DHT22;13860;52.370;6.764;2023-02-18T18:40:18;11.80;86.10
26099;DHT22;13860;52.370;6.764;2023-02-18T18:43:24;11.70;86.00
26099;DHT22;13860;52.370;6.764;2023-02-18T18:46:30;11.70;86.00
26099;DHT22;13860;52.370;6.764;2023-02-18T18:49:34;11.80;86.10
26099;DHT22;13860;52.370;6.764;2023-02-18T18:52:41;11.70;86.10
26099;DHT22;13860;52.370;6.764;2023-02-18T18:55:48;11.70;86.00
26099;DHT22;13860;52.370;6.764;2023-02-18T18:58:54;11.70;86.10
26099;DHT22;13860;52.370;6.764;2023-02-18T19:01:58;11.70;86.80
26099;DHT22;13860;52.370;6.764;2023-02-18T19:05:04;11.70;86.20
26099;DHT22;13860;52.370;6.764;2023-02-18T19:08:10;11.70;86.30
26099;DHT22;13860;52.370;6.764;2023-02-18T19:11:18;11.70;86.20
26099;DHT22;13860;52.370;6.764;2023-02-18T19:14:22;11.70;86.30
26099;DHT22;13860;52.370;6.764;2023-02-18T19:17:28;11.70;86.30
26099;DHT22;13860;52.370;6.764;2023-02-18T19:20:34;11.70;86.30
26099;DHT22;13860;52.370;6.764;2023-02-18T19:23:40;11.70;86.30
26099;DHT22;13860;52.370;6.764;2023-02-18T19:26:45;11.70;86.30
26099;DHT22;13860;52.370;6.764;2023-02-18T19:29:51;11.70;86.30
26099;DHT22;13860;52.370;6.764;2023-02-18T19:32:58;11.70;86.40
26099;DHT22;13860;52.370;6.764;2023-02-18T19:36:08;11.70;86.30
26099;DHT22;13860;52.370;6.764;2023-02-18T19:39:12;11.80;86.40
26099;DHT22;13860;52.370;6.764;2023-02-18T19:42:20;11.80;86.40
26099;DHT22;13860;52.370;6.764;2023-02-18T19:45:24;11.70;86.30
26099;DHT22;13860;52.370;6.764;2023-02-18T19:48:30;11.70;86.40
26099;DHT22;13860;52.370;6.764;2023-02-18T19:51:34;11.70;86.40
26099;DHT22;13860;52.370;6.764;2023-02-18T19:54:40;11.70;86.40
26099;DHT22;13860;52.370;6.764;2023-02-18T19:57:45;11.80;86.50
26099;DHT22;13860;52.370;6.764;2023-02-18T20:00:51;11.70;86.40
26099;DHT22;13860;52.370;6.764;2023-02-18T20:03:55;11.70;86.50
26099;DHT22;13860;52.370;6.764;2023-02-18T20:07:02;11.70;86.50